Time;durP1;ratioP1;P1;durP2;ratioP2;P2;SDS_P1;SDS_P2;PMS_P1;PMS_P2;Temp;Humidity;BMP_temperature;BMP_pressure;BME280_temperature;BME280_humidity;BME280_pressure;Samples;Min_cycle;Max_cycle;Signal;HPM_P1;HPM_P2
2021/04/08 00:02:25;;;;;;;11.77;3.80;;;21.70;69.50;;;;;;5020020;28;20018;-64
2021/04/08 00:05:31;;;;;;;7.93;2.40;;;21.70;69.40;;;;;;5023036;28;20477;-63
2021/04/08 00:08:37;;;;;;;13.10;2.15;;;21.70;70.10;;;;;;5021166;28;20029;-63
2021/04/08 00:11:43;;;;;;;7.80;1.75;;;21.70;69.50;;;;;;5025131;28;20448;-63
2021/04/08 00:14:49;;;;;;;3.70;2.03;;;21.70;69.60;;;;;;5027169;28;20040;-64
2021/04/08 00:17:55;;;;;;;5.70;2.08;;;21.60;69.50;;;;;;5026926;28;20045;-64
2021/04/08 00:21:02;;;;;;;8.15;2.78;;;21.70;69.70;;;;;;5023358;28;20104;-63
2021/04/08 00:24:08;;;;;;;6.25;2.67;;;21.70;69.70;;;;;;5027933;28;20014;-64
2021/04/08 00:27:14;;;;;;;6.90;1.98;;;21.60;69.70;;;;;;5025875;28;20072;-64
2021/04/08 00:30:20;;;;;;;7.97;2.40;;;21.60;69.80;;;;;;5026416;28;20033;-65
2021/04/08 00:33:26;;;;;;;6.47;1.33;;;21.60;69.90;;;;;;5021694;28;20149;-63
2021/04/08 00:36:32;;;;;;;7.78;1.98;;;21.60;70.00;;;;;;5029039;28;20720;-66
2021/04/08 00:39:38;;;;;;;7.40;3.03;;;21.60;70.00;;;;;;5027018;28;20030;-73
2021/04/08 00:42:05;;;;;;;6.63;2.00;;;21.60;70.00;;;;;;5021589;28;20021;-65
2021/04/08 00:44:32;;;;;;;4.80;1.92;;;21.50;70.10;;;;;;5025135;28;20021;-67
2021/04/08 00:46:59;;;;;;;3.80;1.80;;;21.50;70.10;;;;;;5024959;28;20030;-73
2021/04/08 00:49:25;;;;;;;6.45;1.85;;;21.60;70.10;;;;;;5026374;28;20017;-67
2021/04/08 00:51:52;;;;;;;5.95;1.85;;;21.50;70.10;;;;;;5023783;28;20091;-73
2021/04/08 00:54:19;;;;;;;7.60;2.00;;;21.50;70.10;;;;;;5027793;28;20030;-64
2021/04/08 00:56:46;;;;;;;4.95;2.00;;;21.50;70.10;;;;;;5019191;28;20022;-68
2021/04/08 00:59:14;;;;;;;7.88;2.45;;;21.50;70.10;;;;;;5021458;28;20527;-64
2021/04/08 01:01:41;;;;;;;6.88;2.10;;;21.50;70.20;;;;;;5025840;28;20056;-64
2021/04/08 01:04:07;;;;;;;6.63;2.10;;;21.50;70.20;;;;;;5019678;28;20034;-64
2021/04/08 01:06:35;;;;;;;8.80;2.03;;;21.50;70.20;;;;;;5025406;28;20025;-67
2021/04/08 01:09:04;;;;;;;6.68;2.17;;;21.50;70.30;;;;;;5024335;28;20026;-63
2021/04/08 01:11:30;;;;;;;5.80;1.58;;;21.50;70.30;;;;;;5024271;28;20485;-63
2021/04/08 01:13:57;;;;;;;9.93;2.15;;;21.50;70.40;;;;;;5022832;28;20078;-63
2021/04/08 01:16:41;;;;;;;8.55;2.90;;;21.40;70.40;;;;;;5023566;28;20101;-68
2021/04/08 01:19:13;;;;;;;6.72;2.28;;;21.50;70.50;;;;;;5025687;28;20052;-63
2021/04/08 01:21:49;;;;;;;11.52;2.35;;;21.40;70.40;;;;;;5026950;28;20028;-71
2021/04/08 01:24:34;;;;;;;5.57;1.50;;;21.40;70.40;;;;;;5023174;28;20025;-63
2021/04/08 01:27:00;;;;;;;;;;;21.40;70.50;;;;;;5027225;28;20361;-65
2021/04/08 01:29:51;;;;;;;4.85;1.98;;;21.40;70.50;;;;;;5019363;28;20275;-63
2021/04/08 01:32:19;;;;;;;6.78;2.00;;;21.40;70.40;;;;;;5027322;28;20048;-65
2021/04/08 01:34:50;;;;;;;7.38;1.60;;;21.40;70.50;;;;;;5021696;28;20232;-64
2021/04/08 01:37:22;;;;;;;6.95;1.75;;;21.40;70.50;;;;;;5022657;28;20037;-64
2021/04/08 01:39:51;;;;;;;5.82;2.13;;;21.40;70.60;;;;;;5028413;28;20364;-73
2021/04/08 01:42:21;;;;;;;8.23;1.55;;;21.40;70.60;;;;;;5020536;28;20020;-69
2021/04/08 01:44:48;;;;;;;7.22;1.73;;;21.40;70.70;;;;;;5025937;28;20018;-64
2021/04/08 01:47:16;;;;;;;5.78;1.65;;;21.40;70.70;;;;;;5022881;28;20030;-64
2021/04/08 01:49:44;;;;;;;5.50;1.52;;;21.40;70.80;;;;;;5024296;28;20021;-68
2021/04/08 01:52:18;;;;;;;7.18;1.58;;;21.40;70.80;;;;;;5025687;28;20021;-77
2021/04/08 01:54:49;;;;;;;6.90;1.95;;;21.40;70.80;;;;;;5022531;28;20021;-63
2021/04/08 01:57:17;;;;;;;4.20;1.90;;;21.40;70.70;;;;;;5024474;28;20026;-69
2021/04/08 01:59:44;;;;;;;5.28;1.73;;;21.30;70.70;;;;;;5018036;28;20481;-64
2021/04/08 02:02:13;;;;;;;5.80;1.75;;;21.30;70.80;;;;;;5024657;28;20033;-63
2021/04/08 02:04:41;;;;;;;5.53;1.67;;;21.30;70.80;;;;;;5022897;28;20021;-64
2021/04/08 02:07:08;;;;;;;6.75;1.85;;;21.30;70.90;;;;;;5026259;28;20159;-63
2021/04/08 02:09:37;;;;;;;6.75;1.98;;;21.30;70.90;;;;;;5021315;28;20037;-75
2021/04/08 02:12:08;;;;;;;5.65;2.05;;;21.30;71.00;;;;;;5026274;28;20068;-65
2021/04/08 02:14:37;;;;;;;5.88;1.90;;;21.30;71.10;;;;;;5022950;28;20108;-77
2021/04/08 02:17:06;;;;;;;8.32;2.88;;;21.30;71.10;;;;;;5020471;28;20232;-64
2021/04/08 02:19:34;;;;;;;5.03;1.70;;;21.30;71.00;;;;;;5018121;28;20032;-63
2021/04/08 02:22:02;;;;;;;6.63;2.83;;;21.30;71.10;;;;;;5019460;28;20025;-74
2021/04/08 02:24:32;;;;;;;4.40;1.73;;;21.30;71.10;;;;;;5021335;28;20037;-71
2021/04/08 02:27:01;;;;;;;7.20;2.22;;;21.20;71.00;;;;;;5027251;28;20024;-63
2021/04/08 02:29:29;;;;;;;7.65;2.10;;;21.20;71.10;;;;;;5017890;28;20021;-65
2021/04/08 02:31:56;;;;;;;3.13;1.98;;;21.20;71.10;;;;;;5023789;28;20103;-72
2021/04/08 02:34:23;;;;;;;7.78;1.50;;;21.20;71.10;;;;;;5026548;28;20033;-66
2021/04/08 02:36:49;;;;;;;9.13;2.15;;;21.20;71.10;;;;;;5023279;28;20076;-63
2021/04/08 02:39:16;;;;;;;4.53;1.35;;;21.20;71.20;;;;;;5024977;28;20029;-63
2021/04/08 02:41:45;;;;;;;5.03;1.40;;;21.20;71.10;;;;;;5018756;28;20026;-65
2021/04/08 02:44:13;;;;;;;4.60;1.35;;;21.20;71.20;;;;;;5024160;28;20032;-71
2021/04/08 02:46:39;;;;;;;5.30;1.40;;;21.20;71.20;;;;;;5025776;28;20079;-63
2021/04/08 02:49:06;;;;;;;7.75;1.80;;;21.20;71.90;;;;;;5029001;28;20026;-69
2021/04/08 02:51:48;;;;;;;6.45;1.67;;;21.20;71.30;;;;;;5022533;28;20063;-65
2021/04/08 02:54:53;;;;;;;5.10;1.73;;;21.20;71.40;;;;;;5024618;28;20112;-69
2021/04/08 02:57:30;;;;;;;8.32;1.88;;;21.20;71.40;;;;;;5023100;28;20037;-70
2021/04/08 03:00:15;;;;;;;4.15;1.58;;;21.20;71.40;;;;;;5015913;28;20025;-72
2021/04/08 03:02:45;;;;;;;6.03;1.30;;;21.20;71.40;;;;;;5020631;28;20030;-73
2021/04/08 03:05:14;;;;;;;6.53;2.45;;;21.10;71.40;;;;;;5025628;28;20408;-63
2021/04/08 03:07:51;;;;;;;2.58;1.45;;;21.10;71.50;;;;;;5026769;28;20021;-66
2021/04/08 03:10:17;;;;;;;4.53;1.15;;;21.10;71.40;;;;;;5021498;28;20030;-64
2021/04/08 03:12:49;;;;;;;6.47;1.83;;;21.10;71.50;;;;;;5019067;28;20033;-65
2021/04/08 03:15:33;;;;;;;4.38;1.20;;;21.10;71.50;;;;;;5022580;28;20032;-64
2021/04/08 03:18:02;;;;;;;6.25;1.55;;;21.10;71.60;;;;;;5021276;28;20064;-63
2021/04/08 03:20:29;;;;;;;6.20;2.60;;;21.10;71.60;;;;;;5021418;28;20169;-64
2021/04/08 03:23:00;;;;;;;3.47;1.30;;;21.10;71.60;;;;;;5018628;28;20021;-64
2021/04/08 03:25:27;;;;;;;4.25;1.63;;;21.10;71.60;;;;;;5025136;28;20040;-63
2021/04/08 03:27:55;;;;;;;7.05;1.48;;;21.10;71.60;;;;;;5022697;28;20035;-65
2021/04/08 03:30:22;;;;;;;4.07;1.55;;;21.10;71.60;;;;;;5017753;28;20018;-73
2021/04/08 03:32:49;;;;;;;3.70;1.90;;;21.00;71.60;;;;;;5019594;28;20053;-64
2021/04/08 03:35:16;;;;;;;7.05;1.70;;;21.00;71.70;;;;;;5020742;28;20419;-68
2021/04/08 03:37:43;;;;;;;5.63;1.67;;;21.00;71.70;;;;;;5020033;28;20041;-64
2021/04/08 03:40:11;;;;;;;3.72;1.30;;;21.00;71.80;;;;;;5025749;28;20025;-66
2021/04/08 03:42:39;;;;;;;5.53;1.50;;;21.00;71.90;;;;;;5020706;28;20061;-64
2021/04/08 03:45:08;;;;;;;4.68;1.67;;;21.00;71.90;;;;;;5026134;28;20036;-64
2021/04/08 03:47:36;;;;;;;5.38;1.70;;;21.00;71.90;;;;;;5025248;28;20025;-66
2021/04/08 03:50:03;;;;;;;5.68;1.67;;;21.00;72.00;;;;;;5022855;28;20022;-64
2021/04/08 03:52:29;;;;;;;7.20;2.05;;;21.00;72.00;;;;;;5025051;28;20028;-64
2021/04/08 03:54:57;;;;;;;4.80;1.20;;;21.00;72.10;;;;;;5026870;28;20029;-64
2021/04/08 03:57:24;;;;;;;7.40;2.03;;;21.00;72.10;;;;;;5025870;28;20514;-70
2021/04/08 03:59:52;;;;;;;3.97;1.25;;;21.00;72.10;;;;;;5026410;28;20039;-66
2021/04/08 04:02:19;;;;;;;5.65;1.65;;;21.00;72.20;;;;;;5026830;28;20037;-64
2021/04/08 04:04:47;;;;;;;3.10;1.90;;;21.00;72.20;;;;;;5021250;28;20396;-68
2021/04/08 04:07:15;;;;;;;5.55;1.50;;;21.00;72.20;;;;;;5027850;28;20100;-67
2021/04/08 04:09:42;;;;;;;6.80;1.38;;;20.90;72.20;;;;;;5023169;28;20049;-64
2021/04/08 04:12:13;;;;;;;5.35;1.63;;;20.90;72.20;;;;;;5026878;28;20023;-66
2021/04/08 04:14:41;;;;;;;6.97;2.40;;;20.90;72.20;;;;;;5024991;28;20033;-73
2021/04/08 04:17:37;;;;;;;12.60;8.27;;;20.90;72.30;;;;;;5023070;28;20045;-71
2021/04/08 04:20:06;;;;;;;14.93;8.90;;;20.90;72.20;;;;;;5022082;28;20038;-66
2021/04/08 04:22:34;;;;;;;14.60;7.88;;;20.90;72.20;;;;;;5020691;28;20022;-66
2021/04/08 04:25:01;;;;;;;11.75;7.18;;;20.90;72.20;;;;;;5030159;28;20017;-68
2021/04/08 04:27:28;;;;;;;11.43;4.85;;;20.90;72.30;;;;;;5023084;28;20057;-65
2021/04/08 04:29:54;;;;;;;7.43;4.20;;;20.90;72.30;;;;;;5024925;28;20404;-68
2021/04/08 04:32:21;;;;;;;10.85;4.05;;;20.90;72.40;;;;;;5024087;28;20380;-65
2021/04/08 04:34:47;;;;;;;12.88;5.32;;;20.90;72.50;;;;;;5024476;28;20034;-67
2021/04/08 04:37:14;;;;;;;13.63;11.30;;;20.90;72.50;;;;;;5025575;28;20041;-64
2021/04/08 04:39:41;;;;;;;14.48;10.35;;;20.80;72.40;;;;;;5027404;28;20017;-65
2021/04/08 04:42:08;;;;;;;11.80;7.65;;;20.80;72.40;;;;;;5027723;28;20025;-65
2021/04/08 04:44:35;;;;;;;11.18;5.50;;;20.80;73.00;;;;;;5025908;28;20039;-65
2021/04/08 04:47:03;;;;;;;8.75;5.10;;;20.80;72.40;;;;;;5028623;28;20083;-64
2021/04/08 04:49:29;;;;;;;8.52;4.28;;;20.80;72.40;;;;;;5025334;28;20024;-72
2021/04/08 04:51:56;;;;;;;12.18;4.15;;;20.80;72.40;;;;;;5025625;28;20120;-71
2021/04/08 04:54:22;;;;;;;6.47;2.58;;;20.80;72.40;;;;;;5025236;28;20034;-72
2021/04/08 04:56:49;;;;;;;6.07;2.22;;;20.80;72.40;;;;;;5023726;28;20034;-68
2021/04/08 04:59:16;;;;;;;7.32;2.60;;;20.80;72.40;;;;;;5022429;28;20049;-74
2021/04/08 05:01:43;;;;;;;6.22;2.28;;;20.80;72.50;;;;;;5021806;28;20116;-71
2021/04/08 05:04:10;;;;;;;5.63;2.20;;;20.70;72.40;;;;;;5026103;28;20432;-66
2021/04/08 05:06:37;;;;;;;4.97;1.77;;;20.70;72.40;;;;;;5025013;28;20026;-77
2021/04/08 05:09:04;;;;;;;4.38;1.98;;;20.70;73.10;;;;;;5022041;28;20551;-77
2021/04/08 05:11:34;;;;;;;4.90;1.73;;;20.70;72.50;;;;;;5020561;28;20026;-70
2021/04/08 05:14:02;;;;;;;2.22;1.38;;;20.70;72.50;;;;;;5022095;28;20025;-67
2021/04/08 05:16:28;;;;;;;4.15;1.55;;;20.70;72.60;;;;;;5024155;28;20026;-66
2021/04/08 05:18:55;;;;;;;3.67;1.42;;;20.70;72.60;;;;;;5023843;28;20480;-74
2021/04/08 05:21:21;;;;;;;7.93;1.52;;;20.70;72.60;;;;;;5026789;28;20379;-70
2021/04/08 05:23:48;;;;;;;6.95;2.15;;;20.70;72.60;;;;;;5037584;28;20084;-77
2021/04/08 05:26:14;;;;;;;7.35;2.72;;;20.70;72.70;;;;;;5023156;28;20049;-68
2021/04/08 05:28:41;;;;;;;8.20;1.98;;;20.70;72.70;;;;;;5024019;28;20025;-70
2021/04/08 05:31:08;;;;;;;5.93;2.25;;;20.70;72.70;;;;;;5024156;28;20510;-69
2021/04/08 05:33:34;;;;;;;5.88;2.03;;;20.70;72.70;;;;;;5023704;28;20052;-69
2021/04/08 05:36:01;;;;;;;8.70;2.38;;;20.70;72.80;;;;;;5024572;28;20503;-75
2021/04/08 05:38:28;;;;;;;5.18;1.80;;;20.70;72.80;;;;;;5025265;28;20033;-71
2021/04/08 05:40:54;;;;;;;7.07;2.10;;;20.70;72.80;;;;;;5019419;28;20055;-68
2021/04/08 05:43:21;;;;;;;7.18;2.55;;;20.70;72.80;;;;;;5024450;28;20029;-70
2021/04/08 05:45:48;;;;;;;6.18;2.10;;;20.70;72.90;;;;;;5024544;28;20606;-72
2021/04/08 05:48:14;;;;;;;9.00;2.17;;;20.70;72.90;;;;;;5039353;28;20030;-72
2021/04/08 05:50:41;;;;;;;6.03;2.38;;;20.70;72.90;;;;;;5022128;28;20435;-70
2021/04/08 05:53:08;;;;;;;5.18;2.13;;;20.70;73.00;;;;;;5021616;28;20033;-73
2021/04/08 05:55:35;;;;;;;5.82;2.20;;;20.70;73.10;;;;;;5022728;28;20037;-72
2021/04/08 05:58:01;;;;;;;5.35;2.20;;;20.60;73.10;;;;;;5024687;28;20032;-69
2021/04/08 06:00:28;;;;;;;6.30;2.53;;;20.70;73.20;;;;;;5023126;28;20021;-69
2021/04/08 06:02:55;;;;;;;13.10;3.03;;;20.60;73.20;;;;;;5024935;28;20029;-66
2021/04/08 06:05:22;;;;;;;7.47;2.63;;;20.70;73.30;;;;;;5023960;28;20098;-71
2021/04/08 06:07:49;;;;;;;11.20;2.60;;;20.60;73.40;;;;;;5021089;28;20044;-68
2021/04/08 06:10:16;;;;;;;8.02;2.90;;;20.60;73.40;;;;;;5021028;28;20021;-66
2021/04/08 06:12:43;;;;;;;7.68;3.00;;;20.60;73.50;;;;;;5022401;28;20029;-71
2021/04/08 06:15:11;;;;;;;11.23;3.53;;;20.60;73.60;;;;;;5023206;28;20021;-69
2021/04/08 06:17:38;;;;;;;13.07;3.58;;;20.70;73.60;;;;;;5022810;28;20042;-70
2021/04/08 06:20:07;;;;;;;7.25;3.22;;;20.60;73.70;;;;;;5026507;28;20028;-71
2021/04/08 06:22:33;;;;;;;9.52;3.88;;;20.60;73.80;;;;;;5025674;28;20057;-70
2021/04/08 06:25:00;;;;;;;10.80;2.63;;;20.60;73.80;;;;;;5028018;28;20033;-68
2021/04/08 06:27:28;;;;;;;7.70;3.33;;;20.70;74.00;;;;;;5022352;28;20032;-67
2021/04/08 06:29:55;;;;;;;6.28;3.08;;;20.60;74.10;;;;;;5024787;28;20021;-67
2021/04/08 06:32:22;;;;;;;10.90;4.32;;;20.60;74.10;;;;;;5021699;28;20653;-67
2021/04/08 06:34:48;;;;;;;10.07;3.60;;;20.70;74.20;;;;;;5017662;28;20021;-66
2021/04/08 06:37:15;;;;;;;10.38;4.07;;;20.60;74.20;;;;;;5020496;28;20087;-65
2021/04/08 06:39:41;;;;;;;10.40;3.58;;;20.70;74.40;;;;;;5023885;28;20030;-70
2021/04/08 06:42:09;;;;;;;8.75;3.30;;;20.70;74.50;;;;;;5021844;28;20080;-69
2021/04/08 06:44:38;;;;;;;10.45;2.85;;;20.70;74.50;;;;;;5018205;28;20108;-68
2021/04/08 06:47:05;;;;;;;6.22;2.28;;;20.70;74.50;;;;;;5026888;28;20037;-70
2021/04/08 06:49:35;;;;;;;6.00;3.20;;;20.70;74.50;;;;;;5020317;28;20104;-69
2021/04/08 06:52:02;;;;;;;7.45;2.38;;;20.70;74.50;;;;;;5023521;28;20117;-67
2021/04/08 06:54:29;;;;;;;7.65;2.50;;;20.70;74.40;;;;;;5019218;28;20112;-70
2021/04/08 06:56:56;;;;;;;8.98;2.42;;;20.70;74.40;;;;;;5024610;28;20108;-66
2021/04/08 06:59:23;;;;;;;7.82;3.08;;;20.80;74.30;;;;;;5021981;28;20510;-68
2021/04/08 07:01:50;;;;;;;4.95;2.03;;;20.80;74.30;;;;;;5018218;28;20087;-67
2021/04/08 07:04:17;;;;;;;4.45;1.75;;;20.80;74.20;;;;;;5019787;28;20108;-66
2021/04/08 07:06:44;;;;;;;5.25;2.15;;;20.80;74.10;;;;;;5020215;28;20057;-68
2021/04/08 07:09:12;;;;;;;3.03;1.90;;;20.90;74.00;;;;;;5021897;28;20029;-68
2021/04/08 07:11:40;;;;;;;7.70;2.38;;;20.90;74.00;;;;;;5021794;28;20040;-70
2021/04/08 07:14:09;;;;;;;6.57;2.03;;;20.90;73.80;;;;;;5021382;28;20031;-71
2021/04/08 07:16:37;;;;;;;9.95;2.63;;;21.00;73.70;;;;;;5020907;28;20033;-72
2021/04/08 07:19:05;;;;;;;6.25;1.75;;;21.00;73.50;;;;;;5022178;28;20148;-70
2021/04/08 07:21:37;;;;;;;5.70;2.38;;;21.00;73.40;;;;;;5021732;28;20029;-76
2021/04/08 07:24:22;;;;;;;7.70;2.13;;;21.00;73.30;;;;;;5021333;28;20030;-69
2021/04/08 07:26:58;;;;;;;4.17;1.87;;;21.10;73.30;;;;;;5019884;28;20037;-70
2021/04/08 07:29:45;;;;;;;4.25;1.85;;;21.10;73.20;;;;;;5017741;28;20034;-69
2021/04/08 07:32:33;;;;;;;4.68;1.30;;;21.10;73.00;;;;;;5016600;28;20389;-69
2021/04/08 07:35:15;;;;;;;7.47;4.70;;;21.20;73.00;;;;;;5019611;28;20061;-66
2021/04/08 07:37:43;;;;;;;2.92;1.63;;;21.20;72.80;;;;;;5022137;28;20041;-69
2021/04/08 07:40:19;;;;;;;4.22;1.45;;;21.30;72.70;;;;;;5020841;28;20029;-70
2021/04/08 07:42:46;;;;;;;5.80;1.60;;;21.30;72.50;;;;;;5024357;28;20033;-65
2021/04/08 07:45:23;;;;;;;3.63;1.40;;;21.30;72.30;;;;;;5025271;28;20025;-65
2021/04/08 07:48:04;;;;;;;5.30;1.55;;;21.40;72.20;;;;;;5024771;28;20036;-69
2021/04/08 07:50:33;;;;;;;4.35;1.40;;;21.40;72.70;;;;;;5019009;28;20091;-64
2021/04/08 07:53:00;;;;;;;7.95;2.92;;;21.40;71.80;;;;;;5023759;28;20065;-68
2021/04/08 07:55:30;;;;;;;10.82;2.15;;;21.40;71.70;;;;;;5020139;28;20029;-68
2021/04/08 07:58:13;;;;;;;4.45;1.67;;;21.50;71.50;;;;;;5022328;28;20053;-69
2021/04/08 08:00:41;;;;;;;5.00;1.85;;;21.50;71.30;;;;;;5018875;28;20041;-69
2021/04/08 08:03:25;;;;;;;6.10;2.75;;;21.50;71.20;;;;;;5018351;28;20030;-69
2021/04/08 08:05:57;;;;;;;6.25;1.73;;;21.60;71.10;;;;;;5023618;28;20028;-70
2021/04/08 08:08:25;;;;;;;6.38;2.10;;;21.60;71.00;;;;;;5020362;28;20029;-70
2021/04/08 08:11:06;;;;;;;7.57;2.22;;;21.60;70.80;;;;;;5023884;28;20045;-70
2021/04/08 08:13:34;;;;;;;7.20;2.35;;;21.60;70.80;;;;;;5017332;28;20029;-66
2021/04/08 08:16:02;;;;;;;5.63;1.88;;;21.60;70.60;;;;;;5018217;28;20096;-69
2021/04/08 08:18:40;;;;;;;8.38;2.78;;;21.70;70.60;;;;;;5019277;28;20037;-65
2021/04/08 08:21:09;;;;;;;6.18;1.45;;;21.70;70.40;;;;;;5016914;28;20018;-66
2021/04/08 08:23:51;;;;;;;4.82;1.73;;;21.80;70.30;;;;;;5024478;28;20031;-70
2021/04/08 08:26:27;;;;;;;2.95;1.95;;;21.80;70.10;;;;;;5019837;28;20033;-72
2021/04/08 08:29:04;;;;;;;6.30;1.77;;;21.80;70.00;;;;;;5021378;28;20110;-67
2021/04/08 08:31:55;;;;;;;5.55;2.05;;;21.80;69.80;;;;;;5019549;28;20025;-72
2021/04/08 08:34:29;;;;;;;3.95;1.80;;;21.90;69.70;;;;;;5029352;28;20090;-67
2021/04/08 08:37:04;;;;;;;8.15;2.47;;;21.90;69.60;;;;;;5024014;28;20017;-65
2021/04/08 08:39:36;;;;;;;5.45;2.67;;;22.00;69.40;;;;;;5026311;28;20029;-66
2021/04/08 08:42:05;;;;;;;6.70;1.85;;;22.00;69.40;;;;;;5026066;28;20103;-65
2021/04/08 08:44:32;;;;;;;7.00;2.08;;;22.00;69.90;;;;;;5026113;28;20028;-70
2021/04/08 08:47:22;;;;;;;6.43;1.90;;;22.00;69.10;;;;;;5021237;28;20388;-68
2021/04/08 08:49:54;;;;;;;8.52;2.55;;;22.10;69.00;;;;;;5021201;28;20037;-67
2021/04/08 08:52:24;;;;;;;5.45;2.53;;;22.10;68.90;;;;;;5025316;28;20018;-67
2021/04/08 08:54:52;;;;;;;5.47;1.65;;;22.10;68.70;;;;;;5023508;28;20681;-70
2021/04/08 08:57:20;;;;;;;5.40;1.83;;;22.20;68.70;;;;;;5028688;28;20057;-72
2021/04/08 08:59:48;;;;;;;8.25;3.17;;;22.20;68.70;;;;;;5023893;28;20021;-66
2021/04/08 09:02:16;;;;;;;3.78;1.75;;;22.20;68.60;;;;;;5022780;28;20049;-73
2021/04/08 09:04:42;;;;;;;3.05;1.90;;;22.30;68.40;;;;;;5024251;28;20021;-65
2021/04/08 09:07:12;;;;;;;5.57;1.67;;;22.30;67.90;;;;;;5022189;28;20018;-66
2021/04/08 09:09:45;;;;;;;3.30;1.30;;;22.30;67.60;;;;;;5024974;28;20044;-65
2021/04/08 09:12:16;;;;;;;3.03;1.40;;;22.40;67.80;;;;;;5022931;28;20029;-69
2021/04/08 09:14:48;;;;;;;3.05;1.42;;;22.40;67.00;;;;;;5024595;28;20026;-68
2021/04/08 09:17:45;;;;;;;4.75;1.30;;;22.40;66.70;;;;;;5025610;28;20480;-65
2021/04/08 09:20:18;;;;;;;1.92;1.08;;;22.40;66.70;;;;;;5024717;28;20037;-70
2021/04/08 09:23:01;;;;;;;10.60;1.77;;;22.50;66.70;;;;;;5024420;28;20037;-66
2021/04/08 09:25:54;;;;;;;6.72;2.78;;;22.60;66.50;;;;;;5022909;28;20025;-65
2021/04/08 09:28:21;;;;;;;3.75;1.73;;;22.60;66.30;;;;;;5025624;28;20037;-68
2021/04/08 09:33:42;;;;;;;6.28;2.83;;;22.60;66.30;;;;;;5025064;28;20057;-72
2021/04/08 09:36:21;;;;;;;2.28;1.10;;;22.70;66.30;;;;;;5027168;28;20503;-68
2021/04/08 09:38:52;;;;;;;4.38;1.42;;;22.80;66.30;;;;;;5023260;28;20042;-73
2021/04/08 09:41:38;;;;;;;7.53;2.03;;;22.80;66.20;;;;;;5018168;28;20026;-66
2021/04/08 09:44:06;;;;;;;4.85;1.10;;;22.90;66.20;;;;;;5027598;28;20087;-66
2021/04/08 09:46:54;;;;;;;5.13;1.52;;;22.90;65.90;;;;;;5025797;28;20456;-66
2021/04/08 09:49:39;;;;;;;2.72;1.20;;;22.90;65.50;;;;;;5023266;28;20018;-68
2021/04/08 09:52:08;;;;;;;2.35;0.90;;;23.00;65.40;;;;;;5023278;28;20092;-69
2021/04/08 09:54:47;;;;;;;3.63;1.10;;;23.00;65.20;;;;;;5020715;28;20488;-66
2021/04/08 09:57:33;;;;;;;4.03;1.40;;;23.10;65.00;;;;;;5022783;28;20033;-66
2021/04/08 10:00:01;;;;;;;2.58;1.50;;;23.10;64.70;;;;;;5019673;28;20025;-65
2021/04/08 10:02:28;;;;;;;2.90;1.20;;;23.20;64.70;;;;;;5023724;28;20056;-73
2021/04/08 10:05:09;;;;;;;2.65;1.35;;;23.20;64.50;;;;;;5022706;28;20105;-66
2021/04/08 10:07:48;;;;;;;2.45;1.35;;;23.30;64.20;;;;;;5022307;28;20028;-66
2021/04/08 10:10:15;;;;;;;4.22;1.27;;;23.30;64.00;;;;;;5024234;28;20021;-65
2021/04/08 10:12:42;;;;;;;3.08;1.20;;;23.30;63.90;;;;;;5022049;28;20061;-65
2021/04/08 10:15:09;;;;;;;3.20;1.00;;;23.40;63.90;;;;;;5022541;28;20104;-68
2021/04/08 10:17:37;;;;;;;4.57;1.13;;;23.40;63.90;;;;;;5023585;28;20041;-67
2021/04/08 10:20:08;;;;;;;4.32;1.20;;;23.40;64.00;;;;;;5027647;28;20452;-66
2021/04/08 10:22:43;;;;;;;6.65;1.58;;;23.40;63.80;;;;;;5022541;28;20026;-65
2021/04/08 10:25:10;;;;;;;2.78;0.93;;;23.50;63.70;;;;;;5020586;28;20079;-70
2021/04/08 10:27:38;;;;;;;4.30;1.15;;;23.60;63.40;;;;;;5023857;28;20029;-70
2021/04/08 10:30:18;;;;;;;3.25;1.15;;;23.60;63.10;;;;;;5021331;28;20523;-67
2021/04/08 10:32:45;;;;;;;4.38;1.25;;;23.70;62.80;;;;;;5021011;28;20382;-69
2021/04/08 10:35:21;;;;;;;3.00;1.42;;;23.70;62.50;;;;;;5024161;28;20025;-67
2021/04/08 10:37:58;;;;;;;4.72;1.40;;;23.70;62.30;;;;;;5021538;28;20141;-66
2021/04/08 10:40:28;;;;;;;3.13;1.15;;;23.80;62.20;;;;;;5020775;28;20128;-69
2021/04/08 10:43:11;;;;;;;8.50;2.05;;;23.80;61.70;;;;;;5024811;28;20559;-71
2021/04/08 10:45:39;;;;;;;6.82;1.63;;;23.90;61.30;;;;;;5022227;28;20037;-69
2021/04/08 10:48:09;;;;;;;3.80;1.50;;;23.90;61.30;;;;;;5020775;28;20022;-68
2021/04/08 10:50:35;;;;;;;2.33;1.08;;;23.90;61.30;;;;;;5023575;28;20029;-69
2021/04/08 10:53:02;;;;;;;4.80;1.35;;;24.00;61.30;;;;;;5024025;28;20021;-67
2021/04/08 10:55:28;;;;;;;1.98;1.00;;;24.00;61.20;;;;;;5020267;28;20010;-69
2021/04/08 10:57:55;;;;;;;4.28;0.90;;;24.10;61.20;;;;;;5019170;28;20037;-76
2021/04/08 11:00:22;;;;;;;4.32;1.20;;;24.10;61.00;;;;;;5020716;28;20057;-67
2021/04/08 11:02:49;;;;;;;2.95;1.08;;;24.20;60.90;;;;;;5019941;28;20025;-65
2021/04/08 11:05:19;;;;;;;4.47;1.10;;;24.20;60.70;;;;;;5021883;28;20074;-70
2021/04/08 11:07:51;;;;;;;4.00;1.15;;;24.30;60.70;;;;;;5017146;28;20021;-70
2021/04/08 11:10:29;;;;;;;3.75;1.00;;;24.40;60.40;;;;;;5026154;28;20088;-65
2021/04/08 11:12:56;;;;;;;3.22;1.08;;;24.40;60.30;;;;;;5018369;28;20490;-67
2021/04/08 11:15:44;;;;;;;4.15;1.60;;;24.40;60.40;;;;;;5021237;28;20519;-71
2021/04/08 11:18:19;;;;;;;1.88;1.45;;;24.50;60.10;;;;;;5024038;28;20037;-72
2021/04/08 11:20:48;;;;;;;4.10;1.15;;;24.60;60.00;;;;;;5022975;28;20033;-71
2021/04/08 11:23:19;;;;;;;3.67;1.42;;;24.60;60.00;;;;;;5022699;28;20077;-67
2021/04/08 11:26:01;;;;;;;3.85;1.15;;;24.70;59.60;;;;;;5018447;28;20025;-65
2021/04/08 11:28:27;;;;;;;2.97;1.00;;;24.80;59.50;;;;;;5021906;28;20010;-68
2021/04/08 11:30:54;;;;;;;1.40;0.85;;;24.80;59.40;;;;;;5019185;28;20116;-66
2021/04/08 11:33:23;;;;;;;2.65;1.17;;;24.80;59.30;;;;;;5022092;28;20620;-69
2021/04/08 11:35:50;;;;;;;1.55;0.90;;;24.90;59.30;;;;;;5024801;28;20030;-73
2021/04/08 11:38:19;;;;;;;3.58;0.90;;;24.90;59.20;;;;;;5021751;28;20544;-66
2021/04/08 11:40:51;;;;;;;3.70;1.17;;;24.90;59.10;;;;;;5021173;28;20030;-67
2021/04/08 11:43:29;;;;;;;1.67;1.02;;;25.00;59.10;;;;;;5020763;28;20042;-66
2021/04/08 11:46:00;;;;;;;2.28;1.02;;;25.00;58.90;;;;;;5024484;28;20065;-72
2021/04/08 11:48:47;;;;;;;1.40;0.98;;;25.00;59.00;;;;;;5017196;28;20022;-65
2021/04/08 11:51:14;;;;;;;8.15;1.42;;;25.10;58.80;;;;;;5024665;28;20036;-71
2021/04/08 11:53:43;;;;;;;2.92;1.00;;;25.10;58.80;;;;;;5022113;28;20388;-71
2021/04/08 11:56:31;;;;;;;2.55;1.27;;;25.20;58.70;;;;;;5021992;28;20420;-66
2021/04/08 11:59:13;;;;;;;3.25;1.60;;;25.20;58.60;;;;;;5022869;28;20045;-70
2021/04/08 12:01:45;;;;;;;3.05;0.93;;;25.30;58.60;;;;;;5021583;28;20112;-68
2021/04/08 12:04:21;;;;;;;2.60;1.02;;;25.30;58.60;;;;;;5023200;28;20408;-71
2021/04/08 12:06:53;;;;;;;4.88;1.00;;;25.30;58.50;;;;;;5024092;28;20107;-66
2021/04/08 12:09:43;;;;;;;5.28;1.33;;;25.40;58.60;;;;;;5028448;28;20040;-69
2021/04/08 12:12:10;;;;;;;4.05;1.23;;;25.40;58.50;;;;;;5035929;28;20037;-70
2021/04/08 12:15:07;;;;;;;4.28;1.85;;;25.50;58.40;;;;;;5022692;28;20026;-68
2021/04/08 12:17:34;;;;;;;2.55;1.00;;;25.50;58.20;;;;;;5023099;28;20049;-66
2021/04/08 12:20:15;;;;;;;2.47;0.98;;;25.60;58.30;;;;;;5030082;28;20021;-66
2021/04/08 12:22:42;;;;;;;5.97;2.08;;;25.60;58.10;;;;;;5026986;28;20029;-68
2021/04/08 12:25:12;;;;;;;1.83;0.90;;;25.70;58.00;;;;;;5019776;28;20014;-66
2021/04/08 12:27:39;;;;;;;4.22;0.85;;;25.70;57.80;;;;;;5028821;28;20034;-66
2021/04/08 12:30:08;;;;;;;2.13;1.25;;;25.70;57.60;;;;;;5021717;28;20024;-71
2021/04/08 12:32:35;;;;;;;2.35;0.85;;;25.70;57.50;;;;;;5028989;28;20054;-66
2021/04/08 12:35:02;;;;;;;3.53;1.38;;;25.70;57.60;;;;;;5024233;28;20037;-65
2021/04/08 12:37:28;;;;;;;1.50;0.90;;;25.70;57.50;;;;;;5027777;28;20136;-70
2021/04/08 12:39:55;;;;;;;5.72;1.20;;;25.70;57.40;;;;;;5025215;28;20026;-67
2021/04/08 12:42:22;;;;;;;2.00;1.02;;;25.70;57.40;;;;;;5025768;28;20021;-70
2021/04/08 12:44:49;;;;;;;5.22;1.00;;;25.80;57.40;;;;;;5023839;28;20037;-72
2021/04/08 12:47:16;;;;;;;6.10;1.30;;;25.80;57.30;;;;;;5022480;28;20354;-66
2021/04/08 12:49:42;;;;;;;6.70;1.10;;;25.80;57.30;;;;;;5026663;28;20033;-65
2021/04/08 12:52:09;;;;;;;2.38;0.98;;;25.80;57.20;;;;;;5026665;28;20028;-66
2021/04/08 12:54:36;;;;;;;2.17;1.25;;;25.80;57.30;;;;;;5025170;28;20030;-66
2021/04/08 12:57:03;;;;;;;2.75;1.48;;;25.80;57.00;;;;;;5019580;28;20484;-67
2021/04/08 12:59:30;;;;;;;1.50;0.70;;;25.80;57.00;;;;;;5028378;28;20036;-66
2021/04/08 13:01:57;;;;;;;1.73;0.90;;;25.70;56.70;;;;;;5023497;28;20079;-70
2021/04/08 13:04:24;;;;;;;3.70;1.88;;;25.80;56.50;;;;;;5023580;28;20029;-66
2021/04/08 13:06:52;;;;;;;2.55;0.98;;;25.70;56.70;;;;;;5018267;28;20026;-66
2021/04/08 13:09:18;;;;;;;2.90;0.70;;;25.70;56.60;;;;;;5027118;28;20435;-66
2021/04/08 13:11:45;;;;;;;2.92;0.70;;;25.70;56.60;;;;;;5027086;28;20105;-66
2021/04/08 13:14:11;;;;;;;3.72;0.95;;;25.70;56.80;;;;;;5024667;28;20032;-73